sensor_id;sensor_type;location;lat;lon;timestamp;pressure;altitude;pressure_sealevel;temperature;humidity
79577;BME280;69045;48.136;11.386;2023-08-01T00:00:29;94564.31;;;21.99;55.16
79577;BME280;69045;48.136;11.386;2023-08-01T00:02:58;94573.19;;;21.86;55.13
79577;BME280;69045;48.136;11.386;2023-08-01T00:05:26;94570.88;;;21.93;55.11
79577;BME280;69045;48.136;11.386;2023-08-01T00:07:54;94562.09;;;21.39;55.01
79577;BME280;69045;48.136;11.386;2023-08-01T00:10:22;94556.13;;;21.19;55.70
79577;BME280;69045;48.136;11.386;2023-08-01T00:12:50;94551.03;;;21.09;55.10
79577;BME280;69045;48.136;11.386;2023-08-01T00:15:18;94544.84;;;21.00;55.00
79577;BME280;69045;48.136;11.386;2023-08-01T00:17:48;94538.75;;;21.22;54.88
79577;BME280;69045;48.136;11.386;2023-08-01T00:20:16;94543.78;;;21.23;54.64
79577;BME280;69045;48.136;11.386;2023-08-01T00:25:13;94540.28;;;21.37;54.67
79577;BME280;69045;48.136;11.386;2023-08-01T00:27:41;94531.91;;;21.07;55.41
79577;BME280;69045;48.136;11.386;2023-08-01T00:30:09;94530.28;;;20.34;57.74
79577;BME280;69045;48.136;11.386;2023-08-01T00:32:37;94521.78;;;20.45;58.54
79577;BME280;69045;48.136;11.386;2023-08-01T00:35:08;94516.91;;;20.75;57.68
79577;BME280;69045;48.136;11.386;2023-08-01T00:37:37;94512.53;;;21.15;56.87
79577;BME280;69045;48.136;11.386;2023-08-01T00:40:06;94514.63;;;21.41;56.11
79577;BME280;69045;48.136;11.386;2023-08-01T00:42:36;94502.16;;;21.59;55.67
79577;BME280;69045;48.136;11.386;2023-08-01T00:45:05;94492.97;;;21.73;55.45
79577;BME280;69045;48.136;11.386;2023-08-01T00:47:34;94487.41;;;21.84;54.55
79577;BME280;69045;48.136;11.386;2023-08-01T00:50:03;94488.03;;;21.89;54.72
79577;BME280;69045;48.136;11.386;2023-08-01T00:52:33;94487.09;;;21.94;54.14
79577;BME280;69045;48.136;11.386;2023-08-01T00:55:01;94486.66;;;22.00;53.88
79577;BME280;69045;48.136;11.386;2023-08-01T00:57:30;94479.34;;;22.15;54.07
79577;BME280;69045;48.136;11.386;2023-08-01T00:59:59;94478.75;;;22.18;53.75
79577;BME280;69045;48.136;11.386;2023-08-01T01:02:27;94470.75;;;22.26;53.33
79577;BME280;69045;48.136;11.386;2023-08-01T01:04:56;94476.09;;;22.26;53.13
79577;BME280;69045;48.136;11.386;2023-08-01T01:07:26;94474.38;;;22.22;52.90
79577;BME280;69045;48.136;11.386;2023-08-01T01:09:55;94469.66;;;22.27;52.99
79577;BME280;69045;48.136;11.386;2023-08-01T01:12:23;94459.94;;;22.31;52.83
79577;BME280;69045;48.136;11.386;2023-08-01T01:14:50;94449.28;;;22.31;52.71
79577;BME280;69045;48.136;11.386;2023-08-01T01:17:18;94452.53;;;22.11;52.82
79577;BME280;69045;48.136;11.386;2023-08-01T01:19:46;94436.44;;;21.94;53.80
79577;BME280;69045;48.136;11.386;2023-08-01T01:22:16;94440.53;;;22.00;53.78
79577;BME280;69045;48.136;11.386;2023-08-01T01:24:46;94441.66;;;22.07;54.11
79577;BME280;69045;48.136;11.386;2023-08-01T01:27:17;94453.78;;;22.14;54.27
79577;BME280;69045;48.136;11.386;2023-08-01T01:29:48;94433.72;;;22.25;53.90
79577;BME280;69045;48.136;11.386;2023-08-01T01:32:18;94433.09;;;22.28;54.06
79577;BME280;69045;48.136;11.386;2023-08-01T01:34:47;94430.72;;;22.35;53.73
79577;BME280;69045;48.136;11.386;2023-08-01T01:37:16;94438.28;;;22.42;53.75
79577;BME280;69045;48.136;11.386;2023-08-01T01:39:44;94431.69;;;22.30;54.07
79577;BME280;69045;48.136;11.386;2023-08-01T01:42:12;94428.38;;;22.33;54.22
79577;BME280;69045;48.136;11.386;2023-08-01T01:44:40;94436.06;;;22.35;54.52
79577;BME280;69045;48.136;11.386;2023-08-01T01:47:08;94418.66;;;22.38;55.63
79577;BME280;69045;48.136;11.386;2023-08-01T01:49:36;94418.53;;;22.43;55.69
79577;BME280;69045;48.136;11.386;2023-08-01T01:52:05;94409.72;;;22.51;55.56
79577;BME280;69045;48.136;11.386;2023-08-01T01:54:34;94400.63;;;22.43;55.87
79577;BME280;69045;48.136;11.386;2023-08-01T01:57:02;94393.88;;;22.37;55.91
79577;BME280;69045;48.136;11.386;2023-08-01T01:59:30;94387.75;;;22.37;55.90
79577;BME280;69045;48.136;11.386;2023-08-01T02:01:58;94388.22;;;22.39;55.84
79577;BME280;69045;48.136;11.386;2023-08-01T02:04:26;94387.56;;;22.42;55.52
79577;BME280;69045;48.136;11.386;2023-08-01T02:06:54;94375.81;;;22.43;55.57
79577;BME280;69045;48.136;11.386;2023-08-01T02:09:22;94372.81;;;22.44;55.42
79577;BME280;69045;48.136;11.386;2023-08-01T02:11:52;94364.16;;;22.47;55.20
79577;BME280;69045;48.136;11.386;2023-08-01T02:14:20;94367.47;;;22.53;55.56
79577;BME280;69045;48.136;11.386;2023-08-01T02:16:48;94359.63;;;22.56;55.91
79577;BME280;69045;48.136;11.386;2023-08-01T02:19:16;94362.91;;;22.62;56.00
79577;BME280;69045;48.136;11.386;2023-08-01T02:21:44;94360.56;;;22.60;56.21
79577;BME280;69045;48.136;11.386;2023-08-01T02:24:12;94359.00;;;22.59;55.89
79577;BME280;69045;48.136;11.386;2023-08-01T02:26:40;94361.19;;;22.57;56.00
79577;BME280;69045;48.136;11.386;2023-08-01T02:29:10;94355.69;;;22.54;55.92
79577;BME280;69045;48.136;11.386;2023-08-01T02:31:38;94354.00;;;22.49;55.83
79577;BME280;69045;48.136;11.386;2023-08-01T02:34:06;94361.50;;;22.47;55.88
79577;BME280;69045;48.136;11.386;2023-08-01T02:36:34;94357.28;;;22.46;55.95
79577;BME280;69045;48.136;11.386;2023-08-01T02:39:02;94350.81;;;22.47;55.66
79577;BME280;69045;48.136;11.386;2023-08-01T02:41:30;94351.31;;;22.49;55.82
79577;BME280;69045;48.136;11.386;2023-08-01T02:44:00;94354.28;;;22.56;56.19
79577;BME280;69045;48.136;11.386;2023-08-01T02:46:29;94357.56;;;22.53;56.10
79577;BME280;69045;48.136;11.386;2023-08-01T02:48:58;94362.00;;;22.49;55.98
79577;BME280;69045;48.136;11.386;2023-08-01T02:51:26;94360.72;;;22.47;55.98
79577;BME280;69045;48.136;11.386;2023-08-01T02:53:54;94348.94;;;22.48;56.22
79577;BME280;69045;48.136;11.386;2023-08-01T02:56:22;94363.56;;;22.50;56.03
79577;BME280;69045;48.136;11.386;2023-08-01T02:58:50;94374.25;;;22.50;56.74
79577;BME280;69045;48.136;11.386;2023-08-01T03:01:19;94369.38;;;22.52;57.32
79577;BME280;69045;48.136;11.386;2023-08-01T03:03:48;94379.56;;;22.42;57.36
79577;BME280;69045;48.136;11.386;2023-08-01T03:06:16;94371.72;;;22.45;58.25
79577;BME280;69045;48.136;11.386;2023-08-01T03:08:45;94361.38;;;22.44;58.76
79577;BME280;69045;48.136;11.386;2023-08-01T03:11:14;94370.78;;;22.41;58.98
79577;BME280;69045;48.136;11.386;2023-08-01T03:13:42;94370.16;;;22.36;58.81
79577;BME280;69045;48.136;11.386;2023-08-01T03:16:10;94373.44;;;22.32;59.99
79577;BME280;69045;48.136;11.386;2023-08-01T03:18:38;94374.09;;;22.29;60.10
79577;BME280;69045;48.136;11.386;2023-08-01T03:21:08;94369.03;;;22.28;59.93
79577;BME280;69045;48.136;11.386;2023-08-01T03:23:36;94370.31;;;22.30;59.56
79577;BME280;69045;48.136;11.386;2023-08-01T03:26:04;94373.44;;;22.32;60.01
79577;BME280;69045;48.136;11.386;2023-08-01T03:28:32;94367.66;;;22.30;60.13
79577;BME280;69045;48.136;11.386;2023-08-01T03:31:01;94368.75;;;22.29;60.84
79577;BME280;69045;48.136;11.386;2023-08-01T03:33:29;94376.13;;;22.24;60.38
79577;BME280;69045;48.136;11.386;2023-08-01T03:35:58;94373.59;;;22.27;61.56
79577;BME280;69045;48.136;11.386;2023-08-01T03:38:27;94372.81;;;22.27;62.36
79577;BME280;69045;48.136;11.386;2023-08-01T03:40:56;94385.38;;;22.18;62.52
79577;BME280;69045;48.136;11.386;2023-08-01T03:43:24;94384.06;;;22.06;62.65
79577;BME280;69045;48.136;11.386;2023-08-01T03:45:52;94367.91;;;22.03;62.63
79577;BME280;69045;48.136;11.386;2023-08-01T03:48:21;94374.34;;;22.02;61.93
79577;BME280;69045;48.136;11.386;2023-08-01T03:50:49;94390.16;;;21.98;63.23
79577;BME280;69045;48.136;11.386;2023-08-01T03:53:18;94389.22;;;21.94;63.36
79577;BME280;69045;48.136;11.386;2023-08-01T03:55:48;94390.31;;;21.93;63.50
79577;BME280;69045;48.136;11.386;2023-08-01T03:58:16;94400.81;;;21.90;63.47
79577;BME280;69045;48.136;11.386;2023-08-01T04:00:44;94404.28;;;21.90;63.39
79577;BME280;69045;48.136;11.386;2023-08-01T04:03:12;94394.53;;;21.94;63.35
79577;BME280;69045;48.136;11.386;2023-08-01T04:05:40;94411.34;;;21.95;62.58
79577;BME280;69045;48.136;11.386;2023-08-01T04:08:08;94405.41;;;22.06;62.18
79577;BME280;69045;48.136;11.386;2023-08-01T04:10:36;94395.69;;;22.02;62.53
79577;BME280;69045;48.136;11.386;2023-08-01T04:13:06;94404.94;;;22.04;61.84
79577;BME280;69045;48.136;11.386;2023-08-01T04:15:34;94399.13;;;22.02;62.10
79577;BME280;69045;48.136;11.386;2023-08-01T04:18:02;94397.53;;;22.01;62.29
79577;BME280;69045;48.136;11.386;2023-08-01T04:20:30;94401.94;;;21.97;62.28
79577;BME280;69045;48.136;11.386;2023-08-01T04:22:59;94400.06;;;22.06;61.87
79577;BME280;69045;48.136;11.386;2023-08-01T04:25:27;94401.19;;;22.14;61.90
79577;BME280;69045;48.136;11.386;2023-08-01T04:27:55;94394.16;;;22.18;62.12
79577;BME280;69045;48.136;11.386;2023-08-01T04:30:25;94393.22;;;22.23;61.43
79577;BME280;69045;48.136;11.386;2023-08-01T04:32:53;94395.44;;;22.29;60.96
79577;BME280;69045;48.136;11.386;2023-08-01T04:35:21;94390.88;;;22.39;61.36
79577;BME280;69045;48.136;11.386;2023-08-01T04:37:49;94381.59;;;22.27;61.38
79577;BME280;69045;48.136;11.386;2023-08-01T04:40:17;94389.59;;;22.19;62.31
79577;BME280;69045;48.136;11.386;2023-08-01T04:42:45;94388.28;;;22.07;62.80
79577;BME280;69045;48.136;11.386;2023-08-01T04:45:13;94385.16;;;21.97;63.70
79577;BME280;69045;48.136;11.386;2023-08-01T04:47:43;94379.50;;;21.90;63.32
79577;BME280;69045;48.136;11.386;2023-08-01T04:50:11;94379.31;;;21.86;63.69
79577;BME280;69045;48.136;11.386;2023-08-01T04:52:39;94380.25;;;21.82;64.29
79577;BME280;69045;48.136;11.386;2023-08-01T04:55:08;94372.72;;;21.75;64.97
79577;BME280;69045;48.136;11.386;2023-08-01T04:57:36;94376.13;;;21.67;65.04
79577;BME280;69045;48.136;11.386;2023-08-01T05:00:04;94360.75;;;21.64;65.65
79577;BME280;69045;48.136;11.386;2023-08-01T05:02:33;94356.66;;;21.58;65.72
79577;BME280;69045;48.136;11.386;2023-08-01T05:05:02;94359.16;;;21.54;66.06
79577;BME280;69045;48.136;11.386;2023-08-01T05:07:30;94355.84;;;21.48;66.61
79577;BME280;69045;48.136;11.386;2023-08-01T05:09:58;94357.09;;;21.42;66.80
79577;BME280;69045;48.136;11.386;2023-08-01T05:12:27;94356.75;;;21.35;66.91
79577;BME280;69045;48.136;11.386;2023-08-01T05:14:55;94346.38;;;21.34;67.89
79577;BME280;69045;48.136;11.386;2023-08-01T05:17:23;94336.94;;;21.27;68.48
79577;BME280;69045;48.136;11.386;2023-08-01T05:19:51;94329.59;;;20.93;69.04
79577;BME280;69045;48.136;11.386;2023-08-01T05:22:20;94328.78;;;20.93;69.49
79577;BME280;69045;48.136;11.386;2023-08-01T05:24:48;94322.22;;;20.99;69.16
79577;BME280;69045;48.136;11.386;2023-08-01T05:27:16;94326.50;;;21.00;69.22
79577;BME280;69045;48.136;11.386;2023-08-01T05:29:44;94336.97;;;21.05;68.67
79577;BME280;69045;48.136;11.386;2023-08-01T05:32:12;94336.28;;;21.22;67.74
79577;BME280;69045;48.136;11.386;2023-08-01T05:34:40;94336.34;;;21.31;67.41
79577;BME280;69045;48.136;11.386;2023-08-01T05:37:08;94344.22;;;21.36;66.23
79577;BME280;69045;48.136;11.386;2023-08-01T05:39:38;94350.03;;;21.46;65.76
79577;BME280;69045;48.136;11.386;2023-08-01T05:42:06;94331.75;;;21.62;65.48
79577;BME280;69045;48.136;11.386;2023-08-01T05:44:35;94333.97;;;21.77;64.06
79577;BME280;69045;48.136;11.386;2023-08-01T05:47:03;94333.06;;;21.91;63.55
79577;BME280;69045;48.136;11.386;2023-08-01T05:49:32;94333.19;;;21.94;63.49
79577;BME280;69045;48.136;11.386;2023-08-01T05:52:00;94328.19;;;22.01;63.27
79577;BME280;69045;48.136;11.386;2023-08-01T05:54:28;94336.88;;;22.16;62.13
79577;BME280;69045;48.136;11.386;2023-08-01T05:56:57;94339.09;;;22.22;61.60
79577;BME280;69045;48.136;11.386;2023-08-01T05:59:25;94336.56;;;22.26;61.27
79577;BME280;69045;48.136;11.386;2023-08-01T06:01:54;94330.91;;;22.27;60.96
79577;BME280;69045;48.136;11.386;2023-08-01T06:04:22;94333.59;;;22.36;60.63
79577;BME280;69045;48.136;11.386;2023-08-01T06:06:50;94328.38;;;22.40;60.53
79577;BME280;69045;48.136;11.386;2023-08-01T06:09:19;94330.91;;;22.36;60.69
79577;BME280;69045;48.136;11.386;2023-08-01T06:11:50;94328.84;;;22.42;60.47
79577;BME280;69045;48.136;11.386;2023-08-01T06:14:20;94319.56;;;22.48;60.48
79577;BME280;69045;48.136;11.386;2023-08-01T06:16:48;94313.75;;;22.54;59.83
79577;BME280;69045;48.136;11.386;2023-08-01T06:19:16;94316.13;;;22.56;59.67
79577;BME280;69045;48.136;11.386;2023-08-01T06:21:44;94299.63;;;22.54;59.73
79577;BME280;69045;48.136;11.386;2023-08-01T06:24:12;94297.94;;;22.49;59.33
79577;BME280;69045;48.136;11.386;2023-08-01T06:26:40;94303.28;;;22.49;58.93
79577;BME280;69045;48.136;11.386;2023-08-01T06:29:09;94291.16;;;22.52;59.52
79577;BME280;69045;48.136;11.386;2023-08-01T06:31:38;94282.50;;;22.55;58.31
79577;BME280;69045;48.136;11.386;2023-08-01T06:34:07;94276.25;;;22.51;58.04
79577;BME280;69045;48.136;11.386;2023-08-01T06:36:35;94276.09;;;22.47;58.71
79577;BME280;69045;48.136;11.386;2023-08-01T06:39:03;94260.38;;;22.54;57.34
79577;BME280;69045;48.136;11.386;2023-08-01T06:41:31;94253.75;;;22.60;57.30
79577;BME280;69045;48.136;11.386;2023-08-01T06:44:00;94258.78;;;22.62;56.54
79577;BME280;69045;48.136;11.386;2023-08-01T06:46:28;94258.47;;;22.64;56.35
79577;BME280;69045;48.136;11.386;2023-08-01T06:48:57;94252.34;;;22.63;56.01
79577;BME280;69045;48.136;11.386;2023-08-01T06:51:25;94243.88;;;22.61;56.16
79577;BME280;69045;48.136;11.386;2023-08-01T06:53:53;94222.78;;;22.68;55.49
79577;BME280;69045;48.136;11.386;2023-08-01T06:56:22;94223.28;;;22.70;54.87
79577;BME280;69045;48.136;11.386;2023-08-01T06:58:50;94233.47;;;22.77;54.63
79577;BME280;69045;48.136;11.386;2023-08-01T07:01:18;94230.19;;;22.71;54.00
79577;BME280;69045;48.136;11.386;2023-08-01T07:03:46;94217.78;;;22.67;54.23
79577;BME280;69045;48.136;11.386;2023-08-01T07:06:16;94211.94;;;22.73;54.06
79577;BME280;69045;48.136;11.386;2023-08-01T07:08:44;94201.09;;;22.78;53.64
79577;BME280;69045;48.136;11.386;2023-08-01T07:11:12;94199.81;;;22.84;52.26
79577;BME280;69045;48.136;11.386;2023-08-01T07:13:40;94207.34;;;22.82;52.68
79577;BME280;69045;48.136;11.386;2023-08-01T07:16:08;94196.84;;;22.77;52.45
79577;BME280;69045;48.136;11.386;2023-08-01T07:18:37;94184.91;;;22.75;52.08
79577;BME280;69045;48.136;11.386;2023-08-01T07:21:05;94177.88;;;22.70;52.44
79577;BME280;69045;48.136;11.386;2023-08-01T07:23:35;94168.16;;;22.66;51.56
79577;BME280;69045;48.136;11.386;2023-08-01T07:26:03;94186.09;;;22.56;52.30
79577;BME280;69045;48.136;11.386;2023-08-01T07:28:31;94190.06;;;22.42;52.60
79577;BME280;69045;48.136;11.386;2023-08-01T07:31:00;94198.34;;;22.49;52.58
79577;BME280;69045;48.136;11.386;2023-08-01T07:33:28;94198.06;;;22.50;52.29
79577;BME280;69045;48.136;11.386;2023-08-01T07:35:56;94183.28;;;22.53;52.24
79577;BME280;69045;48.136;11.386;2023-08-01T07:38:25;94182.63;;;22.65;52.04
79577;BME280;69045;48.136;11.386;2023-08-01T07:40:55;94172.94;;;22.81;51.92
79577;BME280;69045;48.136;11.386;2023-08-01T07:43:25;94176.09;;;22.92;51.35
79577;BME280;69045;48.136;11.386;2023-08-01T07:45:55;94164.88;;;22.98;50.97
79577;BME280;69045;48.136;11.386;2023-08-01T07:48:26;94130.28;;;23.02;50.81
79577;BME280;69045;48.136;11.386;2023-08-01T07:50:54;94140.78;;;23.07;50.94
79577;BME280;69045;48.136;11.386;2023-08-01T07:53:22;94131.22;;;23.06;50.95
79577;BME280;69045;48.136;11.386;2023-08-01T07:55:51;94115.38;;;23.01;51.18
79577;BME280;69045;48.136;11.386;2023-08-01T07:58:21;94153.59;;;22.93;51.80
79577;BME280;69045;48.136;11.386;2023-08-01T08:00:49;94167.56;;;22.98;51.82
79577;BME280;69045;48.136;11.386;2023-08-01T08:03:17;94175.06;;;23.05;51.49
79577;BME280;69045;48.136;11.386;2023-08-01T08:05:47;94154.41;;;23.14;51.08
79577;BME280;69045;48.136;11.386;2023-08-01T08:08:15;94163.47;;;23.22;51.35
79577;BME280;69045;48.136;11.386;2023-08-01T08:10:43;94184.44;;;23.40;51.24
79577;BME280;69045;48.136;11.386;2023-08-01T08:13:11;94191.78;;;23.73;50.50
79577;BME280;69045;48.136;11.386;2023-08-01T08:15:41;94203.63;;;24.05;49.10
79577;BME280;69045;48.136;11.386;2023-08-01T08:18:09;94206.25;;;24.26;49.08
79577;BME280;69045;48.136;11.386;2023-08-01T08:20:42;94213.47;;;24.46;48.31
79577;BME280;69045;48.136;11.386;2023-08-01T08:23:12;94208.38;;;24.54;48.43
79577;BME280;69045;48.136;11.386;2023-08-01T08:25:41;94200.56;;;24.61;48.48
79577;BME280;69045;48.136;11.386;2023-08-01T08:28:12;94206.59;;;24.70;48.29
79577;BME280;69045;48.136;11.386;2023-08-01T08:30:41;94205.41;;;24.80;48.23
79577;BME280;69045;48.136;11.386;2023-08-01T08:33:19;94191.44;;;24.86;48.13
79577;BME280;69045;48.136;11.386;2023-08-01T08:35:47;94188.28;;;24.84;47.88
79577;BME280;69045;48.136;11.386;2023-08-01T08:38:17;94190.53;;;24.82;48.92
79577;BME280;69045;48.136;11.386;2023-08-01T08:40:55;94202.47;;;24.85;48.90
79577;BME280;69045;48.136;11.386;2023-08-01T08:43:31;94212.06;;;24.86;48.75
79577;BME280;69045;48.136;11.386;2023-08-01T08:46:02;94228.50;;;24.84;48.58
79577;BME280;69045;48.136;11.386;2023-08-01T08:48:31;94224.69;;;24.85;48.62
79577;BME280;69045;48.136;11.386;2023-08-01T08:51:01;94222.13;;;24.89;49.23
79577;BME280;69045;48.136;11.386;2023-08-01T08:53:31;94232.31;;;24.95;48.64
79577;BME280;69045;48.136;11.386;2023-08-01T08:56:01;94221.47;;;24.92;48.04
79577;BME280;69045;48.136;11.386;2023-08-01T08:58:30;94204.84;;;24.86;48.22
79577;BME280;69045;48.136;11.386;2023-08-01T09:01:02;94214.22;;;24.80;48.55
79577;BME280;69045;48.136;11.386;2023-08-01T09:03:31;94208.50;;;24.69;48.60
79577;BME280;69045;48.136;11.386;2023-08-01T09:06:04;94202.00;;;24.70;48.96
79577;BME280;69045;48.136;11.386;2023-08-01T09:08:36;94196.09;;;24.65;49.25
79577;BME280;69045;48.136;11.386;2023-08-01T09:11:09;94179.25;;;24.64;47.49
79577;BME280;69045;48.136;11.386;2023-08-01T09:13:38;94202.78;;;24.59;48.62
79577;BME280;69045;48.136;11.386;2023-08-01T09:16:09;94205.44;;;24.59;48.24
79577;BME280;69045;48.136;11.386;2023-08-01T09:18:47;94220.19;;;24.65;49.06
79577;BME280;69045;48.136;11.386;2023-08-01T09:21:17;94224.81;;;24.76;49.28
79577;BME280;69045;48.136;11.386;2023-08-01T09:23:45;94229.81;;;24.78;48.56
79577;BME280;69045;48.136;11.386;2023-08-01T09:26:14;94254.72;;;24.78;49.05
79577;BME280;69045;48.136;11.386;2023-08-01T09:28:42;94248.69;;;24.82;48.57
79577;BME280;69045;48.136;11.386;2023-08-01T09:31:12;94256.75;;;24.82;48.53
79577;BME280;69045;48.136;11.386;2023-08-01T09:33:41;94262.69;;;24.87;48.92
79577;BME280;69045;48.136;11.386;2023-08-01T09:36:09;94262.00;;;24.90;48.87
79577;BME280;69045;48.136;11.386;2023-08-01T09:38:37;94263.91;;;24.90;48.52
79577;BME280;69045;48.136;11.386;2023-08-01T09:41:06;94271.50;;;24.88;48.44
79577;BME280;69045;48.136;11.386;2023-08-01T09:43:34;94264.69;;;24.90;48.61
79577;BME280;69045;48.136;11.386;2023-08-01T09:46:06;94251.28;;;24.90;48.33
79577;BME280;69045;48.136;11.386;2023-08-01T09:48:36;94261.56;;;24.88;47.99
79577;BME280;69045;48.136;11.386;2023-08-01T09:51:06;94267.69;;;24.89;48.32
79577;BME280;69045;48.136;11.386;2023-08-01T09:53:35;94264.88;;;24.85;48.58
79577;BME280;69045;48.136;11.386;2023-08-01T09:56:04;94266.69;;;24.81;47.59
79577;BME280;69045;48.136;11.386;2023-08-01T09:58:34;94269.91;;;24.74;48.39
79577;BME280;69045;48.136;11.386;2023-08-01T10:01:03;94288.41;;;24.67;48.34
79577;BME280;69045;48.136;11.386;2023-08-01T10:03:36;94291.88;;;24.68;47.86
79577;BME280;69045;48.136;11.386;2023-08-01T10:06:04;94300.50;;;24.73;47.76
79577;BME280;69045;48.136;11.386;2023-08-01T10:08:34;94295.66;;;24.67;47.85
79577;BME280;69045;48.136;11.386;2023-08-01T10:11:04;94295.88;;;24.62;47.02
79577;BME280;69045;48.136;11.386;2023-08-01T10:13:33;94308.59;;;24.65;47.31
79577;BME280;69045;48.136;11.386;2023-08-01T10:16:01;94312.06;;;24.65;47.52
79577;BME280;69045;48.136;11.386;2023-08-01T10:18:30;94301.50;;;24.48;48.21
79577;BME280;69045;48.136;11.386;2023-08-01T10:21:02;94316.06;;;24.38;48.90
79577;BME280;69045;48.136;11.386;2023-08-01T10:23:31;94311.97;;;24.20;50.37
79577;BME280;69045;48.136;11.386;2023-08-01T10:26:03;94308.25;;;24.12;51.61
79577;BME280;69045;48.136;11.386;2023-08-01T10:28:32;94304.38;;;24.22;51.06
79577;BME280;69045;48.136;11.386;2023-08-01T10:31:08;94300.59;;;24.23;51.56
79577;BME280;69045;48.136;11.386;2023-08-01T10:33:37;94291.44;;;24.24;51.49
79577;BME280;69045;48.136;11.386;2023-08-01T10:36:14;94294.66;;;24.17;51.33
79577;BME280;69045;48.136;11.386;2023-08-01T10:38:49;94285.31;;;24.03;51.92
79577;BME280;69045;48.136;11.386;2023-08-01T10:41:24;94284.81;;;23.88;52.80
79577;BME280;69045;48.136;11.386;2023-08-01T10:43:52;94284.22;;;23.83;52.99
79577;BME280;69045;48.136;11.386;2023-08-01T10:46:45;94279.91;;;23.90;53.00
79577;BME280;69045;48.136;11.386;2023-08-01T10:49:13;94267.19;;;23.87;52.68
79577;BME280;69045;48.136;11.386;2023-08-01T10:51:44;94251.25;;;23.91;53.00
79577;BME280;69045;48.136;11.386;2023-08-01T10:54:20;94259.09;;;23.96;52.29
79577;BME280;69045;48.136;11.386;2023-08-01T10:56:51;94248.88;;;23.98;52.75
79577;BME280;69045;48.136;11.386;2023-08-01T10:59:21;94237.75;;;23.87;52.82
79577;BME280;69045;48.136;11.386;2023-08-01T11:01:51;94226.81;;;23.80;53.30
79577;BME280;69045;48.136;11.386;2023-08-01T11:04:22;94231.38;;;23.80;52.90
79577;BME280;69045;48.136;11.386;2023-08-01T11:06:54;94242.91;;;23.72;52.89
79577;BME280;69045;48.136;11.386;2023-08-01T11:09:25;94241.84;;;23.64;53.22
79577;BME280;69045;48.136;11.386;2023-08-01T11:11:55;94228.03;;;23.62;54.00
79577;BME280;69045;48.136;11.386;2023-08-01T11:14:27;94231.47;;;23.62;53.93
79577;BME280;69045;48.136;11.386;2023-08-01T11:16:57;94248.47;;;23.66;54.16
79577;BME280;69045;48.136;11.386;2023-08-01T11:19:28;94249.06;;;23.72;53.73
79577;BME280;69045;48.136;11.386;2023-08-01T11:22:09;94247.50;;;23.71;53.55
79577;BME280;69045;48.136;11.386;2023-08-01T11:24:38;94253.22;;;23.61;53.54
79577;BME280;69045;48.136;11.386;2023-08-01T11:27:10;94268.00;;;23.58;54.19
79577;BME280;69045;48.136;11.386;2023-08-01T11:29:38;94266.72;;;23.64;54.30
79577;BME280;69045;48.136;11.386;2023-08-01T11:32:07;94265.63;;;23.65;54.52
79577;BME280;69045;48.136;11.386;2023-08-01T11:34:39;94272.00;;;23.73;53.45
79577;BME280;69045;48.136;11.386;2023-08-01T11:37:17;94278.78;;;23.70;53.72
79577;BME280;69045;48.136;11.386;2023-08-01T11:39:47;94272.97;;;23.68;54.30
79577;BME280;69045;48.136;11.386;2023-08-01T11:42:18;94263.38;;;23.67;54.10
79577;BME280;69045;48.136;11.386;2023-08-01T11:44:46;94275.88;;;23.55;54.20
79577;BME280;69045;48.136;11.386;2023-08-01T11:47:15;94275.09;;;23.54;54.47
79577;BME280;69045;48.136;11.386;2023-08-01T11:49:48;94267.38;;;23.53;54.65
79577;BME280;69045;48.136;11.386;2023-08-01T11:52:26;94277.44;;;23.56;54.78
79577;BME280;69045;48.136;11.386;2023-08-01T11:54:55;94275.88;;;23.55;54.74
79577;BME280;69045;48.136;11.386;2023-08-01T11:57:23;94283.28;;;23.49;55.21
79577;BME280;69045;48.136;11.386;2023-08-01T11:59:54;94289.13;;;23.51;54.77
79577;BME280;69045;48.136;11.386;2023-08-01T12:02:23;94284.84;;;23.50;54.88
79577;BME280;69045;48.136;11.386;2023-08-01T12:04:52;94277.44;;;23.56;54.87
79577;BME280;69045;48.136;11.386;2023-08-01T12:07:21;94278.84;;;23.62;55.27
79577;BME280;69045;48.136;11.386;2023-08-01T12:09:57;94272.28;;;23.80;54.58
79577;BME280;69045;48.136;11.386;2023-08-01T12:12:27;94287.63;;;23.92;54.80
79577;BME280;69045;48.136;11.386;2023-08-01T12:14:55;94278.72;;;24.21;53.53
79577;BME280;69045;48.136;11.386;2023-08-01T12:17:23;94292.44;;;24.40;53.26
79577;BME280;69045;48.136;11.386;2023-08-01T12:19:51;94305.47;;;24.63;53.29
79577;BME280;69045;48.136;11.386;2023-08-01T12:22:20;94308.63;;;24.77;52.44
79577;BME280;69045;48.136;11.386;2023-08-01T12:24:48;94308.28;;;24.78;52.25
79577;BME280;69045;48.136;11.386;2023-08-01T12:27:17;94306.41;;;24.79;52.46
79577;BME280;69045;48.136;11.386;2023-08-01T12:29:45;94315.56;;;24.78;52.33
79577;BME280;69045;48.136;11.386;2023-08-01T12:32:13;94297.13;;;24.76;52.02
79577;BME280;69045;48.136;11.386;2023-08-01T12:34:41;94304.25;;;24.72;52.52
79577;BME280;69045;48.136;11.386;2023-08-01T12:37:09;94303.72;;;24.79;51.87
79577;BME280;69045;48.136;11.386;2023-08-01T12:39:38;94299.94;;;24.80;52.24
79577;BME280;69045;48.136;11.386;2023-08-01T12:42:06;94298.34;;;24.79;52.33
79577;BME280;69045;48.136;11.386;2023-08-01T12:44:36;94298.63;;;24.86;52.42
79577;BME280;69045;48.136;11.386;2023-08-01T12:47:05;94300.19;;;24.87;53.57
79577;BME280;69045;48.136;11.386;2023-08-01T12:49:34;94299.50;;;24.90;54.00
79577;BME280;69045;48.136;11.386;2023-08-01T12:52:03;94304.13;;;25.02;54.12
79577;BME280;69045;48.136;11.386;2023-08-01T12:54:31;94316.47;;;25.15;53.55
79577;BME280;69045;48.136;11.386;2023-08-01T12:56:59;94297.56;;;25.24;53.51
79577;BME280;69045;48.136;11.386;2023-08-01T12:59:28;94302.94;;;25.24;52.98
79577;BME280;69045;48.136;11.386;2023-08-01T13:01:57;94292.13;;;25.20;53.50